createdAt,value
2024-03-12T00:04:20.396Z,99209.68
2024-03-12T00:09:24.726Z,99206.80
2024-03-12T00:14:30.021Z,99211.36
2024-03-12T00:19:35.517Z,99211.42
2024-03-12T00:24:42.439Z,99212.45
2024-03-12T00:29:47.553Z,99209.74
2024-03-12T00:34:52.636Z,99203.71
2024-03-12T00:39:57.631Z,99198.73
2024-03-12T00:45:03.461Z,99199.63
2024-03-12T00:50:13.936Z,99201.57
2024-03-12T00:55:20.574Z,99198.04
2024-03-12T01:00:30.446Z,99195.13
2024-03-12T01:05:40.924Z,99193.32
2024-03-12T01:10:47.284Z,99189.98
2024-03-12T01:15:56.416Z,99186.83
2024-03-12T01:21:01.750Z,99188.34
2024-03-12T01:26:08.136Z,99191.55
2024-03-12T01:31:12.290Z,99195.19
2024-03-12T01:36:22.524Z,99193.65
2024-03-12T01:41:27.942Z,99194.48
2024-03-12T01:46:35.018Z,99196.48
2024-03-12T01:51:39.376Z,99193.67
2024-03-12T01:56:48.788Z,99190.00
2024-03-12T02:02:02.431Z,99185.44
2024-03-12T02:07:07.297Z,99184.46
2024-03-12T02:12:11.544Z,99184.24
2024-03-12T02:17:16.738Z,99181.10
2024-03-12T02:22:20.885Z,99183.64
2024-03-12T02:27:25.265Z,99187.46
2024-03-12T02:32:29.994Z,99184.77
2024-03-12T02:37:34.832Z,99186.08
2024-03-12T02:42:46.142Z,99181.36
2024-03-12T02:47:51.098Z,99180.71
2024-03-12T02:52:58.114Z,99179.76
2024-03-12T02:58:05.957Z,99182.23
2024-03-12T03:03:10.884Z,99179.08
2024-03-12T03:08:14.802Z,99180.00
2024-03-12T03:13:20.547Z,99181.62
2024-03-12T03:18:24.716Z,99181.34
2024-03-12T03:23:28.570Z,99184.54
2024-03-12T03:28:32.204Z,99183.17
2024-03-12T03:33:41.450Z,99181.65
2024-03-12T03:38:46.952Z,99186.41
2024-03-12T03:43:50.775Z,99182.92
2024-03-12T03:48:57.954Z,99180.48
2024-03-12T03:54:03.150Z,99184.86
2024-03-12T03:59:07.555Z,99181.63
2024-03-12T04:04:14.757Z,99181.35
2024-03-12T04:09:19.883Z,99180.63
2024-03-12T04:14:26.859Z,99183.18
2024-03-12T04:19:33.587Z,99178.46
2024-03-12T04:24:39.722Z,99184.86
2024-03-12T04:29:43.794Z,99185.54
2024-03-12T04:34:48.451Z,99183.64
2024-03-12T04:39:52.940Z,99184.29
2024-03-12T04:44:58.667Z,99185.45
2024-03-12T04:50:04.877Z,99186.00
2024-03-12T04:55:09.674Z,99194.20
2024-03-12T05:00:21.060Z,99196.83
2024-03-12T05:05:25.307Z,99199.65
2024-03-12T05:10:29.110Z,99205.14
2024-03-12T05:15:33.051Z,99211.20
2024-03-12T05:20:37.752Z,99219.98
2024-03-12T05:25:43.097Z,99219.63
2024-03-12T05:30:47.976Z,99226.85
2024-03-12T05:35:53.997Z,99230.40
2024-03-12T05:41:11.071Z,99235.80
2024-03-12T05:46:34.133Z,99239.16
2024-03-12T05:51:39.830Z,99242.45
2024-03-12T05:56:44.495Z,99252.62
2024-03-12T06:01:50.753Z,99254.59
2024-03-12T06:06:55.287Z,99253.16
2024-03-12T06:12:00.361Z,99259.30
2024-03-12T06:17:05.371Z,99260.75
2024-03-12T06:22:10.646Z,99260.55
2024-03-12T06:27:15.934Z,99259.93
2024-03-12T06:32:23.164Z,99263.86
2024-03-12T06:37:29.259Z,99266.05
2024-03-12T06:42:33.511Z,99270.38
2024-03-12T06:47:42.883Z,99271.42
2024-03-12T06:52:50.778Z,99269.46
2024-03-12T06:58:06.006Z,99270.36
2024-03-12T07:03:11.135Z,99269.42
2024-03-12T07:08:17.976Z,99268.67
2024-03-12T07:13:24.066Z,99275.00
2024-03-12T07:18:27.976Z,99273.63
2024-03-12T07:23:33.642Z,99274.42
2024-03-12T07:28:39.914Z,99276.55
2024-03-12T07:33:45.497Z,99277.20
2024-03-12T07:38:49.952Z,99282.05
2024-03-12T07:43:55.217Z,99284.16
2024-03-12T07:49:00.452Z,99283.30
2024-03-12T07:54:08.067Z,99283.78
2024-03-12T07:59:12.891Z,99289.41
2024-03-12T08:04:18.355Z,99287.66
2024-03-12T08:09:22.800Z,99289.98
2024-03-12T08:14:26.933Z,99288.29
2024-03-12T08:19:31.211Z,99293.90
2024-03-12T08:24:36.576Z,99290.73
2024-03-12T08:29:41.234Z,99295.27
2024-03-12T08:34:46.235Z,99297.52
2024-03-12T08:39:51.992Z,99301.99
2024-03-12T08:44:57.541Z,99305.17
2024-03-12T08:50:02.069Z,99310.09
2024-03-12T08:55:06.478Z,99314.00
2024-03-12T09:00:13.941Z,99318.90
2024-03-12T09:05:18.539Z,99318.08
2024-03-12T09:10:22.779Z,99324.95
2024-03-12T09:15:26.930Z,99325.54
2024-03-12T09:20:30.964Z,99328.00
2024-03-12T09:25:35.312Z,99328.23
2024-03-12T09:30:39.776Z,99327.70
2024-03-12T09:35:43.959Z,99328.04
2024-03-12T09:40:52.013Z,99329.64
2024-03-12T09:45:56.377Z,99332.89
2024-03-12T09:51:00.983Z,99338.50
2024-03-12T09:56:08.196Z,99341.65
2024-03-12T10:01:14.478Z,99351.89
2024-03-12T10:06:19.254Z,99353.86
2024-03-12T10:11:25.122Z,99351.30
2024-03-12T10:16:34.645Z,99352.86
2024-03-12T10:21:39.133Z,99355.53
2024-03-12T10:26:46.868Z,99356.89
2024-03-12T10:31:52.317Z,99356.55
2024-03-12T10:36:55.945Z,99356.60
2024-03-12T10:42:01.880Z,99357.93
2024-03-12T10:47:06.457Z,99362.42
2024-03-12T10:52:12.303Z,99360.41
2024-03-12T10:57:16.577Z,99358.25
2024-03-12T11:02:21.909Z,99358.34
2024-03-12T11:07:28.055Z,99356.33
2024-03-12T11:12:33.694Z,99360.61
2024-03-12T11:17:41.708Z,99354.59
2024-03-12T11:22:47.369Z,99358.70
2024-03-12T11:27:53.806Z,99356.61
2024-03-12T11:32:59.379Z,99353.95
2024-03-12T11:38:10.644Z,99350.91
2024-03-12T11:43:39.848Z,99353.09
2024-03-12T11:48:44.365Z,99353.00
2024-03-12T11:53:49.568Z,99355.02
2024-03-12T11:59:02.542Z,99354.59
2024-03-12T12:04:12.386Z,99354.87
2024-03-12T12:09:17.075Z,99354.90
2024-03-12T12:14:22.500Z,99356.13
2024-03-12T12:19:32.303Z,99355.44
2024-03-12T12:24:41.877Z,99357.92
2024-03-12T12:29:45.989Z,99358.34
2024-03-12T12:34:51.229Z,99360.98
2024-03-12T12:39:56.150Z,99360.47
2024-03-12T12:45:17.986Z,99360.67
2024-03-12T12:50:33.750Z,99365.36
2024-03-12T12:55:41.335Z,99371.60
2024-03-12T13:00:47.946Z,99372.13
2024-03-12T13:05:52.354Z,99369.26
2024-03-12T13:11:06.996Z,99367.37
2024-03-12T13:16:20.282Z,99368.64
2024-03-12T13:21:26.591Z,99371.37
2024-03-12T13:26:33.601Z,99374.65
2024-03-12T13:31:38.597Z,99376.02
2024-03-12T13:36:45.275Z,99377.77
2024-03-12T13:41:50.959Z,99377.09
2024-03-12T13:46:55.849Z,99382.37
2024-03-12T13:51:59.987Z,99384.05
2024-03-12T13:57:05.217Z,99384.54
2024-03-12T14:02:10.080Z,99387.05
2024-03-12T14:07:17.001Z,99393.69
2024-03-12T14:12:22.347Z,99394.73
2024-03-12T14:17:36.687Z,99395.91
2024-03-12T14:22:50.336Z,99395.45
2024-03-12T14:28:00.352Z,99397.73
2024-03-12T14:33:05.413Z,99399.09
2024-03-12T14:38:17.339Z,99404.29
2024-03-12T14:43:23.893Z,99405.85
2024-03-12T14:48:30.627Z,99408.67
2024-03-12T14:53:41.327Z,99411.13
2024-03-12T14:58:56.744Z,99409.14
2024-03-12T15:04:03.494Z,99413.77
2024-03-12T15:09:08.830Z,99420.52
2024-03-12T15:14:16.763Z,99427.17
2024-03-12T15:19:21.072Z,99429.73
2024-03-12T15:24:28.343Z,99436.60
2024-03-12T15:29:34.759Z,99441.61
2024-03-12T15:34:46.143Z,99445.95
2024-03-12T15:39:50.152Z,99451.42
2024-03-12T15:44:55.140Z,99456.49
2024-03-12T15:49:59.239Z,99459.66
2024-03-12T15:55:03.570Z,99463.41
2024-03-12T16:00:09.927Z,99462.80
2024-03-12T16:05:14.169Z,99463.90
2024-03-12T16:10:17.834Z,99464.75
2024-03-12T16:15:23.822Z,99463.73
2024-03-12T16:20:27.665Z,99466.66
2024-03-12T16:25:31.711Z,99468.63
2024-03-12T16:30:36.564Z,99474.60
2024-03-12T16:35:42.563Z,99477.61
2024-03-12T16:40:47.805Z,99483.30
2024-03-12T16:45:51.280Z,99483.23
2024-03-12T16:50:55.339Z,99487.02
2024-03-12T16:56:03.869Z,99487.69
2024-03-12T17:01:10.135Z,99485.96
2024-03-12T17:06:17.818Z,99491.68
2024-03-12T17:11:22.651Z,99492.80
2024-03-12T17:16:27.610Z,99493.87
2024-03-12T17:21:33.678Z,99500.35
2024-03-12T17:26:38.554Z,99507.57
2024-03-12T17:31:45.026Z,99508.96
2024-03-12T17:36:49.447Z,99512.23
2024-03-12T17:41:53.878Z,99514.65
2024-03-12T17:47:11.853Z,99514.83
2024-03-12T17:52:16.748Z,99513.16
2024-03-12T17:57:21.729Z,99519.23
2024-03-12T18:02:25.436Z,99524.19
2024-03-12T18:07:37.732Z,99526.56
2024-03-12T18:12:45.770Z,99529.54
2024-03-12T18:17:50.226Z,99532.92
2024-03-12T18:22:54.934Z,99541.52
2024-03-12T18:27:59.372Z,99539.79
2024-03-12T18:33:05.513Z,99542.52
2024-03-12T18:38:10.101Z,99545.14
2024-03-12T18:43:14.325Z,99552.75
2024-03-12T18:48:18.909Z,99555.09
2024-03-12T18:53:23.507Z,99557.80
2024-03-12T18:58:28.443Z,99558.36
2024-03-12T19:03:56.389Z,99561.64
2024-03-12T19:09:00.887Z,99568.25
2024-03-12T19:14:05.685Z,99565.88
2024-03-12T19:19:11.923Z,99566.08
2024-03-12T19:24:18.030Z,99572.30
2024-03-12T19:29:23.908Z,99573.45
2024-03-12T19:34:29.337Z,99572.88
2024-03-12T19:39:35.068Z,99572.60
2024-03-12T19:44:39.556Z,99575.85
2024-03-12T19:49:47.223Z,99581.06
2024-03-12T19:54:52.977Z,99582.61
2024-03-12T19:59:59.117Z,99582.13
2024-03-12T20:05:24.357Z,99586.80
2024-03-12T20:10:34.902Z,99590.19
2024-03-12T20:15:45.489Z,99591.98
2024-03-12T20:20:52.469Z,99591.53
2024-03-12T20:26:04.236Z,99595.12
2024-03-12T20:31:12.535Z,99596.33
2024-03-12T20:36:18.738Z,99598.52
2024-03-12T20:41:23.277Z,99602.52
2024-03-12T20:46:32.378Z,99603.45
2024-03-12T20:52:02.741Z,99604.02
2024-03-12T20:57:15.809Z,99604.23
2024-03-12T21:02:20.332Z,99607.20
2024-03-12T21:07:25.705Z,99609.53
2024-03-12T21:12:33.948Z,99610.07
2024-03-12T21:17:38.771Z,99611.09
2024-03-12T21:22:47.521Z,99610.27
2024-03-12T21:27:55.203Z,99608.93
2024-03-12T21:32:59.615Z,99604.58
2024-03-12T21:38:04.330Z,99604.01
2024-03-12T21:43:11.080Z,99605.55
2024-03-12T21:48:33.355Z,99607.08
2024-03-12T21:53:37.627Z,99606.05
2024-03-12T21:58:48.283Z,99611.05
2024-03-12T22:03:54.274Z,99614.27
2024-03-12T22:08:59.340Z,99615.02
2024-03-12T22:14:04.157Z,99617.17
2024-03-12T22:19:10.251Z,99618.60
2024-03-12T22:24:24.181Z,99621.88
2024-03-12T22:29:28.767Z,99621.12
2024-03-12T22:34:35.315Z,99622.45
2024-03-12T22:39:39.367Z,99622.59
2024-03-12T22:44:44.184Z,99629.67
2024-03-12T22:49:47.950Z,99626.65
2024-03-12T22:54:58.454Z,99625.84
2024-03-12T23:00:13.342Z,99626.40
2024-03-12T23:05:18.651Z,99629.34
2024-03-12T23:10:23.800Z,99632.02
2024-03-12T23:15:28.451Z,99634.75
2024-03-12T23:20:33.035Z,99636.73
2024-03-12T23:25:40.553Z,99638.49
2024-03-12T23:30:45.344Z,99635.56
2024-03-12T23:35:50.319Z,99639.05
2024-03-12T23:40:56.454Z,99647.39
2024-03-12T23:46:00.688Z,99655.39
2024-03-12T23:51:05.965Z,99659.67
2024-03-12T23:56:12.796Z,99656.77
